sensor_id;sensor_type;location;lat;lon;timestamp;pressure;altitude;pressure_sealevel;temperature;humidity
42945;BME280;28584;42.636;23.294;2022-11-15T00:00:49;97340.72;;;2.86;100.00
42945;BME280;28584;42.636;23.294;2022-11-15T00:03:19;98387.28;;;2.80;100.00
42945;BME280;28584;42.636;23.294;2022-11-15T00:05:45;99219.22;;;2.67;100.00
42945;BME280;28584;42.636;23.294;2022-11-15T00:08:11;99828.44;;;2.62;100.00
42945;BME280;28584;42.636;23.294;2022-11-15T00:10:37;99897.91;;;2.55;100.00
42945;BME280;28584;42.636;23.294;2022-11-15T00:13:12;100061.06;;;2.41;100.00
42945;BME280;28584;42.636;23.294;2022-11-15T00:15:39;100361.19;;;2.25;100.00
42945;BME280;28584;42.636;23.294;2022-11-15T00:18:06;99945.72;;;2.30;100.00
42945;BME280;28584;42.636;23.294;2022-11-15T00:20:34;99117.22;;;2.36;100.00
42945;BME280;28584;42.636;23.294;2022-11-15T00:23:00;98996.66;;;2.42;100.00
42945;BME280;28584;42.636;23.294;2022-11-15T00:25:25;99393.28;;;2.25;100.00
42945;BME280;28584;42.636;23.294;2022-11-15T00:27:55;99740.69;;;2.12;100.00
42945;BME280;28584;42.636;23.294;2022-11-15T00:30:20;100016.94;;;2.11;100.00
42945;BME280;28584;42.636;23.294;2022-11-15T00:32:46;100357.91;;;2.16;100.00
42945;BME280;28584;42.636;23.294;2022-11-15T00:35:11;100232.56;;;2.06;100.00
42945;BME280;28584;42.636;23.294;2022-11-15T00:37:37;100165.53;;;2.09;100.00
42945;BME280;28584;42.636;23.294;2022-11-15T00:40:02;100254.09;;;2.19;100.00
42945;BME280;28584;42.636;23.294;2022-11-15T00:42:27;99783.78;;;2.18;100.00
42945;BME280;28584;42.636;23.294;2022-11-15T00:44:53;99599.03;;;2.21;100.00
42945;BME280;28584;42.636;23.294;2022-11-15T00:47:18;99805.56;;;2.35;100.00
42945;BME280;28584;42.636;23.294;2022-11-15T00:49:44;99031.66;;;2.37;100.00
42945;BME280;28584;42.636;23.294;2022-11-15T00:52:09;99624.28;;;2.49;100.00
42945;BME280;28584;42.636;23.294;2022-11-15T00:54:34;100147.75;;;2.51;100.00
42945;BME280;28584;42.636;23.294;2022-11-15T00:57:00;100491.44;;;2.58;100.00
42945;BME280;28584;42.636;23.294;2022-11-15T00:59:25;101241.50;;;2.49;100.00
42945;BME280;28584;42.636;23.294;2022-11-15T01:01:50;101697.75;;;2.36;100.00
42945;BME280;28584;42.636;23.294;2022-11-15T01:04:16;102118.19;;;2.28;100.00
42945;BME280;28584;42.636;23.294;2022-11-15T01:06:41;101717.97;;;2.18;100.00
42945;BME280;28584;42.636;23.294;2022-11-15T01:09:06;101698.47;;;2.08;100.00
42945;BME280;28584;42.636;23.294;2022-11-15T01:11:32;101570.00;;;1.99;100.00
42945;BME280;28584;42.636;23.294;2022-11-15T01:13:57;100734.41;;;2.06;100.00
42945;BME280;28584;42.636;23.294;2022-11-15T01:16:22;100325.09;;;2.13;100.00
42945;BME280;28584;42.636;23.294;2022-11-15T01:18:48;100376.41;;;2.06;100.00
42945;BME280;28584;42.636;23.294;2022-11-15T01:21:15;100559.03;;;1.93;100.00
42945;BME280;28584;42.636;23.294;2022-11-15T01:23:41;100120.53;;;2.03;100.00
42945;BME280;28584;42.636;23.294;2022-11-15T01:26:11;99482.31;;;2.25;100.00
42945;BME280;28584;42.636;23.294;2022-11-15T01:28:37;99777.94;;;2.62;100.00
42945;BME280;28584;42.636;23.294;2022-11-15T01:31:06;100418.69;;;2.69;100.00
42945;BME280;28584;42.636;23.294;2022-11-15T01:33:35;101250.31;;;2.79;100.00
42945;BME280;28584;42.636;23.294;2022-11-15T01:36:06;102127.78;;;2.93;100.00
42945;BME280;28584;42.636;23.294;2022-11-15T01:38:32;103351.53;;;2.94;100.00
42945;BME280;28584;42.636;23.294;2022-11-15T01:40:58;104338.44;;;2.97;100.00
42945;BME280;28584;42.636;23.294;2022-11-15T01:43:28;105621.19;;;2.91;100.00
42945;BME280;28584;42.636;23.294;2022-11-15T01:48:53;107375.91;;;2.90;100.00
42945;BME280;28584;42.636;23.294;2022-11-15T01:51:22;107941.94;;;2.79;100.00
42945;BME280;28584;42.636;23.294;2022-11-15T01:53:52;108141.13;;;2.92;100.00
42945;BME280;28584;42.636;23.294;2022-11-15T01:56:23;108160.50;;;3.17;100.00
42945;BME280;28584;42.636;23.294;2022-11-15T01:58:51;108419.72;;;3.15;100.00
42945;BME280;28584;42.636;23.294;2022-11-15T02:01:17;108902.88;;;3.14;100.00
42945;BME280;28584;42.636;23.294;2022-11-15T02:03:56;109177.44;;;3.01;100.00
42945;BME280;28584;42.636;23.294;2022-11-15T02:06:23;109479.00;;;2.89;100.00
42945;BME280;28584;42.636;23.294;2022-11-15T02:08:49;109367.94;;;2.74;100.00
42945;BME280;28584;42.636;23.294;2022-11-15T02:11:14;109184.69;;;2.60;100.00
42945;BME280;28584;42.636;23.294;2022-11-15T02:13:40;108823.84;;;2.50;100.00
42945;BME280;28584;42.636;23.294;2022-11-15T02:18:47;107604.75;;;2.33;100.00
42945;BME280;28584;42.636;23.294;2022-11-15T02:22:10;106808.13;;;2.26;100.00
42945;BME280;28584;42.636;23.294;2022-11-15T02:36:19;102774.69;;;1.90;100.00
42945;BME280;28584;42.636;23.294;2022-11-15T02:41:32;102321.19;;;2.15;100.00
42945;BME280;28584;42.636;23.294;2022-11-15T02:44:04;102781.28;;;2.22;100.00
42945;BME280;28584;42.636;23.294;2022-11-15T02:47:02;104337.63;;;2.27;100.00
42945;BME280;28584;42.636;23.294;2022-11-15T02:49:41;105742.84;;;2.29;100.00
42945;BME280;28584;42.636;23.294;2022-11-15T02:52:07;106925.00;;;2.34;100.00
42945;BME280;28584;42.636;23.294;2022-11-15T02:54:33;107869.66;;;2.42;100.00
42945;BME280;28584;42.636;23.294;2022-11-15T02:57:05;108759.84;;;2.37;100.00
42945;BME280;28584;42.636;23.294;2022-11-15T03:00:05;109735.75;;;2.25;100.00
42945;BME280;28584;42.636;23.294;2022-11-15T03:05:19;110690.28;;;1.95;100.00
42945;BME280;28584;42.636;23.294;2022-11-15T03:10:53;110310.44;;;1.84;100.00
42945;BME280;28584;42.636;23.294;2022-11-15T03:13:27;110084.13;;;1.83;100.00
42945;BME280;28584;42.636;23.294;2022-11-15T03:18:48;109522.38;;;1.65;100.00
42945;BME280;28584;42.636;23.294;2022-11-15T03:21:19;109500.69;;;1.56;100.00
42945;BME280;28584;42.636;23.294;2022-11-15T03:23:47;109236.66;;;1.45;100.00
42945;BME280;28584;42.636;23.294;2022-11-15T03:26:14;108935.81;;;1.46;100.00
42945;BME280;28584;42.636;23.294;2022-11-15T03:28:52;108807.06;;;1.46;100.00
42945;BME280;28584;42.636;23.294;2022-11-15T03:31:21;108662.94;;;1.49;100.00
42945;BME280;28584;42.636;23.294;2022-11-15T03:34:11;108797.13;;;1.53;100.00
42945;BME280;28584;42.636;23.294;2022-11-15T03:36:39;108616.94;;;1.61;100.00
42945;BME280;28584;42.636;23.294;2022-11-15T03:39:06;108363.69;;;1.75;100.00
42945;BME280;28584;42.636;23.294;2022-11-15T03:41:42;108946.66;;;1.79;100.00
42945;BME280;28584;42.636;23.294;2022-11-15T03:44:28;108981.78;;;1.83;100.00
42945;BME280;28584;42.636;23.294;2022-11-15T03:47:23;109532.47;;;1.83;100.00
42945;BME280;28584;42.636;23.294;2022-11-15T03:49:52;109877.56;;;1.73;100.00
42945;BME280;28584;42.636;23.294;2022-11-15T03:52:21;110025.50;;;1.80;100.00
42945;BME280;28584;42.636;23.294;2022-11-15T03:54:56;110000.38;;;1.87;100.00
42945;BME280;28584;42.636;23.294;2022-11-15T03:57:22;110120.28;;;1.88;100.00
42945;BME280;28584;42.636;23.294;2022-11-15T03:59:47;110215.00;;;1.91;100.00
42945;BME280;28584;42.636;23.294;2022-11-15T04:02:13;110051.81;;;1.92;100.00
42945;BME280;28584;42.636;23.294;2022-11-15T04:04:39;109943.56;;;1.89;100.00
42945;BME280;28584;42.636;23.294;2022-11-15T04:07:04;109898.47;;;1.86;100.00
42945;BME280;28584;42.636;23.294;2022-11-15T04:09:30;109726.34;;;1.88;100.00
42945;BME280;28584;42.636;23.294;2022-11-15T04:11:55;109777.59;;;1.81;100.00
42945;BME280;28584;42.636;23.294;2022-11-15T04:14:20;109642.47;;;1.87;100.00
42945;BME280;28584;42.636;23.294;2022-11-15T04:16:46;109727.09;;;1.77;100.00
42945;BME280;28584;42.636;23.294;2022-11-15T04:19:11;109691.84;;;1.71;100.00
42945;BME280;28584;42.636;23.294;2022-11-15T04:21:55;109645.88;;;1.71;100.00
42945;BME280;28584;42.636;23.294;2022-11-15T04:24:39;109550.34;;;1.66;100.00
42945;BME280;28584;42.636;23.294;2022-11-15T04:27:04;109274.63;;;1.75;100.00
42945;BME280;28584;42.636;23.294;2022-11-15T04:29:30;109072.78;;;1.74;100.00
42945;BME280;28584;42.636;23.294;2022-11-15T04:32:03;109021.44;;;1.71;100.00
42945;BME280;28584;42.636;23.294;2022-11-15T04:34:29;109152.03;;;1.61;100.00
42945;BME280;28584;42.636;23.294;2022-11-15T04:36:54;109016.91;;;1.65;100.00
42945;BME280;28584;42.636;23.294;2022-11-15T04:39:42;109166.47;;;1.60;100.00
42945;BME280;28584;42.636;23.294;2022-11-15T04:42:08;109355.59;;;1.48;100.00
42945;BME280;28584;42.636;23.294;2022-11-15T04:44:34;109841.72;;;1.30;100.00
42945;BME280;28584;42.636;23.294;2022-11-15T04:47:00;110207.19;;;1.20;100.00
42945;BME280;28584;42.636;23.294;2022-11-15T04:49:25;110509.50;;;1.09;100.00
42945;BME280;28584;42.636;23.294;2022-11-15T04:51:51;110620.78;;;0.98;100.00
42945;BME280;28584;42.636;23.294;2022-11-15T04:54:16;110525.31;;;0.96;100.00
42945;BME280;28584;42.636;23.294;2022-11-15T04:56:42;110464.84;;;0.91;100.00
42945;BME280;28584;42.636;23.294;2022-11-15T04:59:07;110443.16;;;0.88;100.00
42945;BME280;28584;42.636;23.294;2022-11-15T05:01:33;110574.63;;;0.89;100.00
42945;BME280;28584;42.636;23.294;2022-11-15T05:03:58;110710.34;;;0.83;100.00
42945;BME280;28584;42.636;23.294;2022-11-15T05:06:42;110913.66;;;0.79;100.00
42945;BME280;28584;42.636;23.294;2022-11-15T05:09:07;111113.72;;;0.62;100.00
42945;BME280;28584;42.636;23.294;2022-11-15T05:11:33;111170.78;;;0.49;100.00
42945;BME280;28584;42.636;23.294;2022-11-15T05:13:58;111262.69;;;0.52;100.00
42945;BME280;28584;42.636;23.294;2022-11-15T05:16:23;111550.53;;;0.50;100.00
42945;BME280;28584;42.636;23.294;2022-11-15T05:18:55;111651.84;;;0.61;100.00
42945;BME280;28584;42.636;23.294;2022-11-15T05:21:21;111959.34;;;0.71;100.00
42945;BME280;28584;42.636;23.294;2022-11-15T05:23:46;112597.31;;;0.78;100.00
42945;BME280;28584;42.636;23.294;2022-11-15T05:26:12;113251.81;;;0.99;100.00
42945;BME280;28584;42.636;23.294;2022-11-15T05:28:38;113738.44;;;1.10;100.00
42945;BME280;28584;42.636;23.294;2022-11-15T05:31:10;115870.66;;;1.25;100.00
42945;BME280;28584;42.636;23.294;2022-11-15T05:33:36;117419.97;;;1.38;100.00
42945;BME280;28584;42.636;23.294;2022-11-15T05:36:06;120234.59;;;1.51;100.00
42945;BME280;28584;42.636;23.294;2022-11-15T05:38:33;121946.47;;;1.60;100.00
42945;BME280;28584;42.636;23.294;2022-11-15T05:40:59;123343.78;;;1.68;100.00
42945;BME280;28584;42.636;23.294;2022-11-15T05:43:25;124543.69;;;1.82;100.00
42945;BME280;28584;42.636;23.294;2022-11-15T05:45:51;125259.94;;;1.90;100.00
42945;BME280;28584;42.636;23.294;2022-11-15T05:48:17;126090.66;;;1.91;100.00
42945;BME280;28584;42.636;23.294;2022-11-15T05:50:45;126879.84;;;1.98;100.00
42945;BME280;28584;42.636;23.294;2022-11-15T05:53:13;127475.75;;;1.97;100.00
42945;BME280;28584;42.636;23.294;2022-11-15T05:55:39;127785.53;;;1.99;100.00
42945;BME280;28584;42.636;23.294;2022-11-15T05:58:06;128249.66;;;2.05;100.00
42945;BME280;28584;42.636;23.294;2022-11-15T06:00:32;128665.16;;;2.06;100.00
42945;BME280;28584;42.636;23.294;2022-11-15T06:02:57;129778.25;;;2.08;100.00
42945;BME280;28584;42.636;23.294;2022-11-15T06:05:23;130088.69;;;1.93;100.00
42945;BME280;28584;42.636;23.294;2022-11-15T06:07:48;130256.66;;;2.04;100.00
42945;BME280;28584;42.636;23.294;2022-11-15T06:10:13;130337.56;;;2.15;100.00
42945;BME280;28584;42.636;23.294;2022-11-15T06:12:39;130514.94;;;2.24;100.00
42945;BME280;28584;42.636;23.294;2022-11-15T06:15:04;130736.44;;;2.32;100.00
42945;BME280;28584;42.636;23.294;2022-11-15T06:17:30;130873.06;;;2.36;100.00
42945;BME280;28584;42.636;23.294;2022-11-15T06:19:55;130907.84;;;2.52;100.00
42945;BME280;28584;42.636;23.294;2022-11-15T06:22:21;130964.38;;;2.73;100.00
42945;BME280;28584;42.636;23.294;2022-11-15T06:24:46;131237.88;;;2.81;100.00
42945;BME280;28584;42.636;23.294;2022-11-15T06:27:11;131594.94;;;3.04;100.00
42945;BME280;28584;42.636;23.294;2022-11-15T06:29:37;131772.72;;;3.05;100.00
42945;BME280;28584;42.636;23.294;2022-11-15T06:32:02;132166.06;;;3.19;100.00
42945;BME280;28584;42.636;23.294;2022-11-15T06:34:28;132397.88;;;3.58;100.00
42945;BME280;28584;42.636;23.294;2022-11-15T06:36:53;132607.31;;;3.82;100.00
42945;BME280;28584;42.636;23.294;2022-11-15T06:39:19;132797.06;;;3.95;100.00
42945;BME280;28584;42.636;23.294;2022-11-15T06:41:44;132852.63;;;4.19;100.00
42945;BME280;28584;42.636;23.294;2022-11-15T06:44:09;132930.97;;;4.31;100.00
42945;BME280;28584;42.636;23.294;2022-11-15T06:46:35;133285.56;;;4.22;100.00
42945;BME280;28584;42.636;23.294;2022-11-15T06:49:00;133263.88;;;4.56;100.00
42945;BME280;28584;42.636;23.294;2022-11-15T06:51:26;133810.44;;;3.77;100.00
42945;BME280;28584;42.636;23.294;2022-11-15T06:53:51;134418.59;;;3.54;100.00
42945;BME280;28584;42.636;23.294;2022-11-15T06:56:16;134369.19;;;3.25;100.00
42945;BME280;28584;42.636;23.294;2022-11-15T06:58:42;133629.47;;;3.54;100.00
42945;BME280;28584;42.636;23.294;2022-11-15T07:01:09;132904.25;;;3.73;100.00
42945;BME280;28584;42.636;23.294;2022-11-15T07:03:37;132056.31;;;3.76;100.00
42945;BME280;28584;42.636;23.294;2022-11-15T07:06:03;131823.72;;;4.12;100.00
42945;BME280;28584;42.636;23.294;2022-11-15T07:08:29;131628.69;;;4.19;100.00
42945;BME280;28584;42.636;23.294;2022-11-15T07:10:58;131222.06;;;4.36;100.00
42945;BME280;28584;42.636;23.294;2022-11-15T07:13:25;130958.91;;;4.59;100.00
42945;BME280;28584;42.636;23.294;2022-11-15T07:15:51;130567.53;;;4.84;100.00
42945;BME280;28584;42.636;23.294;2022-11-15T07:18:16;130308.13;;;4.93;100.00
42945;BME280;28584;42.636;23.294;2022-11-15T07:20:42;129966.25;;;4.98;100.00
42945;BME280;28584;42.636;23.294;2022-11-15T07:23:07;129460.34;;;5.15;100.00
42945;BME280;28584;42.636;23.294;2022-11-15T07:25:33;128825.84;;;5.20;100.00
42945;BME280;28584;42.636;23.294;2022-11-15T07:27:58;127938.09;;;4.70;100.00
42945;BME280;28584;42.636;23.294;2022-11-15T07:30:25;127448.00;;;4.87;100.00
42945;BME280;28584;42.636;23.294;2022-11-15T07:32:58;126586.81;;;4.97;100.00
42945;BME280;28584;42.636;23.294;2022-11-15T07:35:26;125794.34;;;5.02;100.00
42945;BME280;28584;42.636;23.294;2022-11-15T07:38:02;125051.34;;;4.28;100.00
42945;BME280;28584;42.636;23.294;2022-11-15T07:40:30;124581.38;;;4.32;100.00
42945;BME280;28584;42.636;23.294;2022-11-15T07:43:03;123610.47;;;4.98;100.00
42945;BME280;28584;42.636;23.294;2022-11-15T07:45:29;122830.75;;;4.76;100.00
42945;BME280;28584;42.636;23.294;2022-11-15T07:47:55;122239.47;;;4.38;100.00
42945;BME280;28584;42.636;23.294;2022-11-15T07:50:22;122165.94;;;3.55;100.00
42945;BME280;28584;42.636;23.294;2022-11-15T07:52:56;122083.50;;;3.77;100.00
42945;BME280;28584;42.636;23.294;2022-11-15T07:55:23;122157.38;;;3.75;100.00
42945;BME280;28584;42.636;23.294;2022-11-15T07:57:49;122116.72;;;3.98;100.00
42945;BME280;28584;42.636;23.294;2022-11-15T08:00:15;122058.78;;;4.16;100.00
42945;BME280;28584;42.636;23.294;2022-11-15T08:02:40;121215.25;;;4.49;100.00
42945;BME280;28584;42.636;23.294;2022-11-15T08:05:06;121249.81;;;4.88;100.00
42945;BME280;28584;42.636;23.294;2022-11-15T08:07:32;120939.31;;;4.65;100.00
42945;BME280;28584;42.636;23.294;2022-11-15T08:09:57;120656.78;;;4.55;100.00
42945;BME280;28584;42.636;23.294;2022-11-15T08:12:23;119896.44;;;4.81;100.00
42945;BME280;28584;42.636;23.294;2022-11-15T08:14:49;119932.13;;;4.82;100.00
42945;BME280;28584;42.636;23.294;2022-11-15T08:17:14;119505.84;;;4.02;100.00
42945;BME280;28584;42.636;23.294;2022-11-15T08:19:40;119266.59;;;4.43;100.00
42945;BME280;28584;42.636;23.294;2022-11-15T08:22:05;118941.56;;;4.43;100.00
42945;BME280;28584;42.636;23.294;2022-11-15T08:24:30;118949.81;;;4.37;100.00
42945;BME280;28584;42.636;23.294;2022-11-15T08:26:56;118485.78;;;4.92;100.00
42945;BME280;28584;42.636;23.294;2022-11-15T08:29:24;118245.97;;;4.85;100.00
42945;BME280;28584;42.636;23.294;2022-11-15T08:31:49;117289.22;;;5.24;100.00
42945;BME280;28584;42.636;23.294;2022-11-15T08:34:15;116190.72;;;5.47;100.00
42945;BME280;28584;42.636;23.294;2022-11-15T08:36:40;115104.09;;;5.86;100.00
42945;BME280;28584;42.636;23.294;2022-11-15T08:39:05;113332.47;;;6.20;100.00
42945;BME280;28584;42.636;23.294;2022-11-15T08:41:34;111745.47;;;5.63;100.00
42945;BME280;28584;42.636;23.294;2022-11-15T08:44:01;109409.50;;;5.55;100.00
42945;BME280;28584;42.636;23.294;2022-11-15T08:46:26;107874.19;;;5.94;100.00
42945;BME280;28584;42.636;23.294;2022-11-15T08:48:52;104622.53;;;6.53;100.00
42945;BME280;28584;42.636;23.294;2022-11-15T08:51:17;97087.84;;;6.12;100.00
42945;BME280;28584;42.636;23.294;2022-11-15T08:53:42;90838.00;;;6.57;100.00
42945;BME280;28584;42.636;23.294;2022-11-15T08:56:10;89831.22;;;6.96;100.00
42945;BME280;28584;42.636;23.294;2022-11-15T08:58:36;96436.88;;;5.74;100.00
42945;BME280;28584;42.636;23.294;2022-11-15T09:01:03;98077.28;;;6.27;100.00
42945;BME280;28584;42.636;23.294;2022-11-15T09:03:28;101646.25;;;6.40;100.00
42945;BME280;28584;42.636;23.294;2022-11-15T09:05:55;108359.25;;;6.33;100.00
42945;BME280;28584;42.636;23.294;2022-11-15T09:08:21;111919.81;;;6.93;100.00
42945;BME280;28584;42.636;23.294;2022-11-15T09:10:47;120778.66;;;7.33;100.00
42945;BME280;28584;42.636;23.294;2022-11-15T09:13:12;142065.81;;;7.57;100.00
42945;BME280;28584;42.636;23.294;2022-11-15T09:15:38;159583.22;;;7.09;100.00
42945;BME280;28584;42.636;23.294;2022-11-15T09:18:04;160291.56;;;6.53;100.00
42945;BME280;28584;42.636;23.294;2022-11-15T09:20:29;160448.75;;;7.12;100.00
42945;BME280;28584;42.636;23.294;2022-11-15T09:22:55;160347.50;;;6.74;100.00
42945;BME280;28584;42.636;23.294;2022-11-15T09:25:23;160440.78;;;7.09;100.00
42945;BME280;28584;42.636;23.294;2022-11-15T09:27:49;160439.44;;;7.08;100.00
42945;BME280;28584;42.636;23.294;2022-11-15T09:30:14;160503.41;;;7.32;100.00
42945;BME280;28584;42.636;23.294;2022-11-15T09:32:40;160587.34;;;7.64;100.00
42945;BME280;28584;42.636;23.294;2022-11-15T09:35:05;160608.69;;;7.72;100.00
42945;BME280;28584;42.636;23.294;2022-11-15T09:37:32;160634.00;;;7.81;100.00
42945;BME280;28584;42.636;23.294;2022-11-15T09:39:57;160460.75;;;7.16;100.00
42945;BME280;28584;42.636;23.294;2022-11-15T09:45:22;160419.44;;;7.01;100.00
42945;BME280;28584;42.636;23.294;2022-11-15T09:50:38;160464.75;;;7.18;100.00
42945;BME280;28584;42.636;23.294;2022-11-15T09:53:04;160209.00;;;6.22;100.00
42945;BME280;28584;42.636;23.294;2022-11-15T09:55:37;154295.41;;;6.48;100.00
42945;BME280;28584;42.636;23.294;2022-11-15T09:58:24;156656.81;;;6.65;100.00
42945;BME280;28584;42.636;23.294;2022-11-15T10:00:52;156594.84;;;6.38;100.00
42945;BME280;28584;42.636;23.294;2022-11-15T10:03:33;154002.75;;;6.15;100.00
42945;BME280;28584;42.636;23.294;2022-11-15T10:06:04;142941.53;;;5.71;100.00
42945;BME280;28584;42.636;23.294;2022-11-15T10:11:29;128859.66;;;7.48;100.00
42945;BME280;28584;42.636;23.294;2022-11-15T10:14:00;154444.72;;;7.98;100.00
42945;BME280;28584;42.636;23.294;2022-11-15T10:22:27;160839.41;;;8.59;100.00
42945;BME280;28584;42.636;23.294;2022-11-15T10:25:09;160656.66;;;7.90;100.00
42945;BME280;28584;42.636;23.294;2022-11-15T10:27:36;160691.34;;;8.03;100.00
42945;BME280;28584;42.636;23.294;2022-11-15T10:30:08;160651.31;;;7.88;100.00
42945;BME280;28584;42.636;23.294;2022-11-15T10:32:36;160587.34;;;7.64;100.00
42945;BME280;28584;42.636;23.294;2022-11-15T10:35:16;160202.38;;;6.19;100.00
42945;BME280;28584;42.636;23.294;2022-11-15T10:37:42;154833.41;;;6.12;100.00
42945;BME280;28584;42.636;23.294;2022-11-15T10:40:22;132618.56;;;6.41;100.00
42945;BME280;28584;42.636;23.294;2022-11-15T10:42:49;124543.63;;;6.59;100.00
42945;BME280;28584;42.636;23.294;2022-11-15T10:45:31;123372.25;;;6.54;100.00
42945;BME280;28584;42.636;23.294;2022-11-15T10:48:20;120951.13;;;6.33;100.00
42945;BME280;28584;42.636;23.294;2022-11-15T10:50:47;112269.88;;;6.08;100.00
42945;BME280;28584;42.636;23.294;2022-11-15T10:55:50;106917.97;;;6.37;100.00
42945;BME280;28584;42.636;23.294;2022-11-15T11:01:15;104194.78;;;5.85;100.00
42945;BME280;28584;42.636;23.294;2022-11-15T11:03:42;101347.81;;;6.04;100.00
42945;BME280;28584;42.636;23.294;2022-11-15T11:06:16;99556.06;;;6.01;100.00
42945;BME280;28584;42.636;23.294;2022-11-15T11:08:55;98658.84;;;6.24;100.00
42945;BME280;28584;42.636;23.294;2022-11-15T11:11:22;101014.44;;;6.18;100.00
42945;BME280;28584;42.636;23.294;2022-11-15T11:13:48;103684.19;;;6.17;100.00
42945;BME280;28584;42.636;23.294;2022-11-15T11:19:05;108421.53;;;6.45;100.00
42945;BME280;28584;42.636;23.294;2022-11-15T11:27:11;123809.63;;;6.52;100.00
42945;BME280;28584;42.636;23.294;2022-11-15T11:32:50;147329.84;;;6.61;100.00
42945;BME280;28584;42.636;23.294;2022-11-15T11:35:45;154404.28;;;6.63;100.00
42945;BME280;28584;42.636;23.294;2022-11-15T11:41:51;160326.22;;;6.66;100.00
42945;BME280;28584;42.636;23.294;2022-11-15T11:44:28;160398.16;;;6.93;100.00
42945;BME280;28584;42.636;23.294;2022-11-15T11:47:03;160431.44;;;7.05;100.00
42945;BME280;28584;42.636;23.294;2022-11-15T11:49:46;160378.16;;;6.85;100.00
42945;BME280;28584;42.636;23.294;2022-11-15T11:52:39;160402.16;;;6.94;100.00
42945;BME280;28584;42.636;23.294;2022-11-15T11:55:14;160406.16;;;6.96;100.00
42945;BME280;28584;42.636;23.294;2022-11-15T12:00:55;160454.09;;;7.14;100.00
42945;BME280;28584;42.636;23.294;2022-11-15T12:14:00;160535.38;;;7.44;100.00
42945;BME280;28584;42.636;23.294;2022-11-15T12:16:31;160508.72;;;7.34;100.00
42945;BME280;28584;42.636;23.294;2022-11-15T12:19:03;160504.69;;;7.33;100.00
42945;BME280;28584;42.636;23.294;2022-11-15T12:21:44;160539.34;;;7.46;100.00
42945;BME280;28584;42.636;23.294;2022-11-15T12:24:27;160590.03;;;7.65;100.00
42945;BME280;28584;42.636;23.294;2022-11-15T12:27:00;160608.69;;;7.72;100.00
42945;BME280;28584;42.636;23.294;2022-11-15T12:29:32;160622.00;;;7.77;100.00
42945;BME280;28584;42.636;23.294;2022-11-15T12:31:58;160614.00;;;7.74;100.00
42945;BME280;28584;42.636;23.294;2022-11-15T12:36:54;160638.00;;;7.83;100.00
42945;BME280;28584;42.636;23.294;2022-11-15T12:39:19;160631.34;;;7.80;100.00
42945;BME280;28584;42.636;23.294;2022-11-15T12:47:22;160635.34;;;7.82;100.00
42945;BME280;28584;42.636;23.294;2022-11-15T12:49:48;160635.34;;;7.82;100.00
42945;BME280;28584;42.636;23.294;2022-11-15T12:52:15;160646.03;;;7.86;100.00
42945;BME280;28584;42.636;23.294;2022-11-15T12:59:51;160691.34;;;8.03;100.00
42945;BME280;28584;42.636;23.294;2022-11-15T13:02:32;160669.97;;;7.95;100.00
42945;BME280;28584;42.636;23.294;2022-11-15T13:17:41;160587.34;;;7.64;100.00
42945;BME280;28584;42.636;23.294;2022-11-15T13:22:52;160552.72;;;7.51;100.00
42945;BME280;28584;42.636;23.294;2022-11-15T13:28:17;160518.06;;;7.38;100.00
42945;BME280;28584;42.636;23.294;2022-11-15T13:33:21;160536.72;;;7.45;100.00
42945;BME280;28584;42.636;23.294;2022-11-15T13:35:54;160528.72;;;7.42;100.00
42945;BME280;28584;42.636;23.294;2022-11-15T13:38:31;160514.06;;;7.36;100.00
42945;BME280;28584;42.636;23.294;2022-11-15T13:40:58;160500.75;;;7.31;100.00
42945;BME280;28584;42.636;23.294;2022-11-15T13:43:36;160479.41;;;7.23;100.00
42945;BME280;28584;42.636;23.294;2022-11-15T13:48:30;160460.75;;;7.16;100.00
42945;BME280;28584;42.636;23.294;2022-11-15T13:50:56;160460.75;;;7.16;100.00
42945;BME280;28584;42.636;23.294;2022-11-15T13:53:23;160451.44;;;7.13;100.00
42945;BME280;28584;42.636;23.294;2022-11-15T13:55:49;160403.44;;;6.95;100.00
42945;BME280;28584;42.636;23.294;2022-11-15T13:58:14;160398.16;;;6.93;100.00
42945;BME280;28584;42.636;23.294;2022-11-15T14:00:42;160384.78;;;6.88;100.00
42945;BME280;28584;42.636;23.294;2022-11-15T14:05:43;159644.53;;;6.56;100.00
42945;BME280;28584;42.636;23.294;2022-11-15T14:08:22;153425.50;;;6.52;100.00
42945;BME280;28584;42.636;23.294;2022-11-15T14:11:05;147325.28;;;6.53;100.00
42945;BME280;28584;42.636;23.294;2022-11-15T14:13:31;143204.47;;;6.58;100.00
42945;BME280;28584;42.636;23.294;2022-11-15T14:16:20;138662.19;;;6.43;100.00
42945;BME280;28584;42.636;23.294;2022-11-15T14:21:11;129238.28;;;6.35;100.00
42945;BME280;28584;42.636;23.294;2022-11-15T14:23:36;124759.66;;;6.39;100.00
42945;BME280;28584;42.636;23.294;2022-11-15T14:26:02;124485.72;;;6.38;100.00
42945;BME280;28584;42.636;23.294;2022-11-15T14:28:30;124718.84;;;6.29;100.00
42945;BME280;28584;42.636;23.294;2022-11-15T14:30:59;123800.91;;;6.21;100.00
42945;BME280;28584;42.636;23.294;2022-11-15T14:33:33;122368.25;;;6.12;100.00
42945;BME280;28584;42.636;23.294;2022-11-15T14:36:13;119723.56;;;6.05;100.00
42945;BME280;28584;42.636;23.294;2022-11-15T14:38:39;117272.81;;;6.01;100.00
42945;BME280;28584;42.636;23.294;2022-11-15T14:41:05;114953.81;;;5.93;100.00
42945;BME280;28584;42.636;23.294;2022-11-15T14:43:31;110833.97;;;5.93;100.00
42945;BME280;28584;42.636;23.294;2022-11-15T14:45:57;107379.63;;;6.01;100.00
42945;BME280;28584;42.636;23.294;2022-11-15T14:48:22;106784.41;;;6.07;100.00